sensor_id;sensor_type;location;lat;lon;timestamp;pressure;altitude;pressure_sealevel;temperature;humidity
50434;BME280;36361;38.954;-9.002;2023-03-04T00:01:02;101072.31;;;10.85;100.00
50434;BME280;36361;38.954;-9.002;2023-03-04T00:02:03;101070.66;;;10.97;100.00
50434;BME280;36361;38.954;-9.002;2023-03-04T00:03:03;101073.59;;;11.02;100.00
50434;BME280;36361;38.954;-9.002;2023-03-04T00:04:04;101066.88;;;10.98;100.00
50434;BME280;36361;38.954;-9.002;2023-03-04T00:05:05;101078.63;;;11.19;100.00
50434;BME280;36361;38.954;-9.002;2023-03-04T00:06:06;101069.81;;;11.23;100.00
50434;BME280;36361;38.954;-9.002;2023-03-04T00:07:07;101073.59;;;11.16;100.00
50434;BME280;36361;38.954;-9.002;2023-03-04T00:08:11;101070.63;;;11.24;100.00
50434;BME280;36361;38.954;-9.002;2023-03-04T00:09:12;101069.81;;;11.03;100.00
50434;BME280;36361;38.954;-9.002;2023-03-04T00:10:16;101067.72;;;11.05;100.00
50434;BME280;36361;38.954;-9.002;2023-03-04T00:11:17;101076.53;;;11.21;100.00
50434;BME280;36361;38.954;-9.002;2023-03-04T00:12:18;101070.22;;;11.20;100.00
50434;BME280;36361;38.954;-9.002;2023-03-04T00:13:18;101063.13;;;11.26;100.00
50434;BME280;36361;38.954;-9.002;2023-03-04T00:14:21;101074.00;;;11.32;100.00
50434;BME280;36361;38.954;-9.002;2023-03-04T00:15:22;101070.63;;;11.24;100.00
50434;BME280;36361;38.954;-9.002;2023-03-04T00:16:23;101064.78;;;11.14;100.00
50434;BME280;36361;38.954;-9.002;2023-03-04T00:17:26;101067.72;;;11.05;100.00
50434;BME280;36361;38.954;-9.002;2023-03-04T00:18:29;101064.78;;;11.00;100.00
50434;BME280;36361;38.954;-9.002;2023-03-04T00:19:30;101067.94;;;10.97;100.00
50434;BME280;36361;38.954;-9.002;2023-03-04T00:20:31;101064.34;;;11.03;100.00
50434;BME280;36361;38.954;-9.002;2023-03-04T00:21:32;101066.47;;;11.01;100.00
50434;BME280;36361;38.954;-9.002;2023-03-04T00:22:33;101068.56;;;10.99;100.00
50434;BME280;36361;38.954;-9.002;2023-03-04T00:23:34;101075.47;;;10.95;100.00
50434;BME280;36361;38.954;-9.002;2023-03-04T00:24:34;101077.53;;;10.87;100.00
50434;BME280;36361;38.954;-9.002;2023-03-04T00:25:35;101073.56;;;10.76;100.00
50434;BME280;36361;38.954;-9.002;2023-03-04T00:26:36;101074.41;;;10.83;100.00
50434;BME280;36361;38.954;-9.002;2023-03-04T00:27:36;101076.88;;;10.65;100.00
50434;BME280;36361;38.954;-9.002;2023-03-04T00:28:38;101073.50;;;10.56;100.00
50434;BME280;36361;38.954;-9.002;2023-03-04T00:29:39;101080.59;;;10.50;100.00
50434;BME280;36361;38.954;-9.002;2023-03-04T00:30:39;101078.78;;;10.71;100.00
50434;BME280;36361;38.954;-9.002;2023-03-04T00:31:40;101083.56;;;10.69;100.00
50434;BME280;36361;38.954;-9.002;2023-03-04T00:32:41;101077.94;;;10.77;100.00
50434;BME280;36361;38.954;-9.002;2023-03-04T00:33:42;101078.59;;;10.79;100.00
50434;BME280;36361;38.954;-9.002;2023-03-04T00:34:43;101079.63;;;10.78;100.00
50434;BME280;36361;38.954;-9.002;2023-03-04T00:35:44;101077.09;;;10.76;100.00
50434;BME280;36361;38.954;-9.002;2023-03-04T00:36:45;101080.03;;;10.75;100.00
50434;BME280;36361;38.954;-9.002;2023-03-04T00:37:46;101078.59;;;10.79;100.00
50434;BME280;36361;38.954;-9.002;2023-03-04T00:38:46;101080.47;;;10.78;100.00
50434;BME280;36361;38.954;-9.002;2023-03-04T00:39:47;101081.31;;;10.79;100.00
50434;BME280;36361;38.954;-9.002;2023-03-04T00:40:51;101081.88;;;10.54;100.00
50434;BME280;36361;38.954;-9.002;2023-03-04T00:41:52;101076.22;;;10.49;100.00
50434;BME280;36361;38.954;-9.002;2023-03-04T00:42:53;101072.19;;;10.32;100.00
50434;BME280;36361;38.954;-9.002;2023-03-04T00:43:54;101071.38;;;10.38;100.00
50434;BME280;36361;38.954;-9.002;2023-03-04T00:44:54;101073.50;;;10.49;100.00
50434;BME280;36361;38.954;-9.002;2023-03-04T00:45:55;101066.38;;;10.48;100.00
50434;BME280;36361;38.954;-9.002;2023-03-04T00:46:56;101065.13;;;10.44;100.00
50434;BME280;36361;38.954;-9.002;2023-03-04T00:47:56;101070.31;;;10.39;100.00
50434;BME280;36361;38.954;-9.002;2023-03-04T00:48:57;101063.41;;;10.37;100.00
50434;BME280;36361;38.954;-9.002;2023-03-04T00:49:57;101063.81;;;10.27;100.00
50434;BME280;36361;38.954;-9.002;2023-03-04T00:50:58;101069.63;;;10.24;100.00
50434;BME280;36361;38.954;-9.002;2023-03-04T00:51:59;101073.00;;;10.26;100.00
50434;BME280;36361;38.954;-9.002;2023-03-04T00:53:00;101066.38;;;10.48;100.00
50434;BME280;36361;38.954;-9.002;2023-03-04T00:54:01;101060.69;;;10.37;100.00
50434;BME280;36361;38.954;-9.002;2023-03-04T00:55:02;101061.34;;;9.97;100.00
50434;BME280;36361;38.954;-9.002;2023-03-04T00:56:04;101060.16;;;10.07;100.00
50434;BME280;36361;38.954;-9.002;2023-03-04T00:57:04;101068.69;;;10.04;100.00
50434;BME280;36361;38.954;-9.002;2023-03-04T00:58:05;101061.44;;;10.17;100.00
50434;BME280;36361;38.954;-9.002;2023-03-04T00:59:06;101058.06;;;10.09;100.00
50434;BME280;36361;38.954;-9.002;2023-03-04T01:00:07;101053.53;;;10.22;100.00
50434;BME280;36361;38.954;-9.002;2023-03-04T01:01:08;101055.47;;;10.35;100.00
50434;BME280;36361;38.954;-9.002;2023-03-04T01:02:09;101057.53;;;10.27;100.00
50434;BME280;36361;38.954;-9.002;2023-03-04T01:03:10;101054.91;;;10.12;100.00
50434;BME280;36361;38.954;-9.002;2023-03-04T01:04:11;101057.09;;;10.30;100.00
50434;BME280;36361;38.954;-9.002;2023-03-04T01:05:12;101049.81;;;9.95;100.00
50434;BME280;36361;38.954;-9.002;2023-03-04T01:06:13;101050.09;;;10.07;100.00
50434;BME280;36361;38.954;-9.002;2023-03-04T01:07:14;101059.13;;;10.21;100.00
50434;BME280;36361;38.954;-9.002;2023-03-04T01:08:15;101058.75;;;10.24;100.00
50434;BME280;36361;38.954;-9.002;2023-03-04T01:09:15;101050.53;;;10.11;100.00
50434;BME280;36361;38.954;-9.002;2023-03-04T01:10:16;101057.88;;;10.17;100.00
50434;BME280;36361;38.954;-9.002;2023-03-04T01:11:17;101062.03;;;10.13;100.00
50434;BME280;36361;38.954;-9.002;2023-03-04T01:12:18;101054.75;;;10.20;100.00
50434;BME280;36361;38.954;-9.002;2023-03-04T01:13:18;101055.41;;;10.22;100.00
50434;BME280;36361;38.954;-9.002;2023-03-04T01:14:19;101049.56;;;10.25;100.00
50434;BME280;36361;38.954;-9.002;2023-03-04T01:15:20;101053.56;;;10.29;100.00
50434;BME280;36361;38.954;-9.002;2023-03-04T01:16:20;101052.03;;;10.20;100.00
50434;BME280;36361;38.954;-9.002;2023-03-04T01:17:21;101055.59;;;10.20;100.00
50434;BME280;36361;38.954;-9.002;2023-03-04T01:18:23;101046.53;;;10.07;100.00
50434;BME280;36361;38.954;-9.002;2023-03-04T01:19:24;101050.84;;;10.29;100.00
50434;BME280;36361;38.954;-9.002;2023-03-04T01:20:24;101053.66;;;10.08;100.00
50434;BME280;36361;38.954;-9.002;2023-03-04T01:21:25;101050.69;;;10.03;100.00
50434;BME280;36361;38.954;-9.002;2023-03-04T01:22:26;101056.38;;;10.08;100.00
50434;BME280;36361;38.954;-9.002;2023-03-04T01:23:26;101059.53;;;10.11;100.00
50434;BME280;36361;38.954;-9.002;2023-03-04T01:24:27;101064.47;;;9.94;100.00
50434;BME280;36361;38.954;-9.002;2023-03-04T01:25:29;101064.75;;;10.13;100.00
50434;BME280;36361;38.954;-9.002;2023-03-04T01:26:30;101068.03;;;10.36;100.00
50434;BME280;36361;38.954;-9.002;2023-03-04T01:27:30;101060.84;;;10.22;100.00
50434;BME280;36361;38.954;-9.002;2023-03-04T01:28:31;101059.56;;;10.18;100.00
50434;BME280;36361;38.954;-9.002;2023-03-04T01:29:35;101067.47;;;10.13;100.00
50434;BME280;36361;38.954;-9.002;2023-03-04T01:30:36;101058.72;;;10.17;100.00
50434;BME280;36361;38.954;-9.002;2023-03-04T01:31:36;101060.78;;;10.09;100.00
50434;BME280;36361;38.954;-9.002;2023-03-04T01:32:37;101065.13;;;10.03;100.00
50434;BME280;36361;38.954;-9.002;2023-03-04T01:33:38;101058.38;;;9.92;100.00
50434;BME280;36361;38.954;-9.002;2023-03-04T01:34:38;101055.09;;;9.97;100.00
50434;BME280;36361;38.954;-9.002;2023-03-04T01:35:39;101050.94;;;10.08;100.00
50434;BME280;36361;38.954;-9.002;2023-03-04T01:36:40;101062.88;;;10.13;100.00
50434;BME280;36361;38.954;-9.002;2023-03-04T01:37:40;101066.91;;;10.24;100.00
50434;BME280;36361;38.954;-9.002;2023-03-04T01:38:42;101060.47;;;10.25;100.00
50434;BME280;36361;38.954;-9.002;2023-03-04T01:39:43;101058.78;;;10.31;100.00
50434;BME280;36361;38.954;-9.002;2023-03-04T01:40:43;101063.34;;;10.23;100.00
50434;BME280;36361;38.954;-9.002;2023-03-04T01:41:47;101061.69;;;10.22;100.00
50434;BME280;36361;38.954;-9.002;2023-03-04T01:42:54;101059.19;;;10.28;100.00
50434;BME280;36361;38.954;-9.002;2023-03-04T01:43:56;101057.94;;;10.30;100.00
50434;BME280;36361;38.954;-9.002;2023-03-04T01:44:58;101070.94;;;10.35;100.00
50434;BME280;36361;38.954;-9.002;2023-03-04T01:45:58;101061.94;;;10.41;100.00
50434;BME280;36361;38.954;-9.002;2023-03-04T01:46:59;101066.72;;;10.32;100.00
50434;BME280;36361;38.954;-9.002;2023-03-04T01:48:00;101061.28;;;10.32;100.00
50434;BME280;36361;38.954;-9.002;2023-03-04T01:49:01;101059.69;;;10.44;100.00
50434;BME280;36361;38.954;-9.002;2023-03-04T01:50:04;101062.63;;;10.56;100.00
50434;BME280;36361;38.954;-9.002;2023-03-04T01:51:14;101055.09;;;10.51;100.00
50434;BME280;36361;38.954;-9.002;2023-03-04T01:52:16;101056.72;;;10.39;100.00
50434;BME280;36361;38.954;-9.002;2023-03-04T01:53:23;101059.63;;;10.31;100.00
50434;BME280;36361;38.954;-9.002;2023-03-04T01:54:24;101052.09;;;10.33;100.00
50434;BME280;36361;38.954;-9.002;2023-03-04T01:55:26;101055.47;;;10.42;100.00
50434;BME280;36361;38.954;-9.002;2023-03-04T01:56:37;101052.94;;;10.40;100.00
50434;BME280;36361;38.954;-9.002;2023-03-04T01:57:38;101042.91;;;10.41;100.00
50434;BME280;36361;38.954;-9.002;2023-03-04T01:58:39;101049.66;;;10.51;100.00
50434;BME280;36361;38.954;-9.002;2023-03-04T01:59:39;101051.31;;;10.52;100.00
50434;BME280;36361;38.954;-9.002;2023-03-04T02:00:40;101039.34;;;10.40;100.00
50434;BME280;36361;38.954;-9.002;2023-03-04T02:01:52;101036.47;;;10.62;100.00
50434;BME280;36361;38.954;-9.002;2023-03-04T02:03:00;101038.59;;;10.73;100.00
50434;BME280;36361;38.954;-9.002;2023-03-04T02:04:01;101039.84;;;10.77;100.00
50434;BME280;36361;38.954;-9.002;2023-03-04T02:05:02;101044.22;;;10.65;100.00
50434;BME280;36361;38.954;-9.002;2023-03-04T02:06:04;101040.88;;;10.76;100.00
50434;BME280;36361;38.954;-9.002;2023-03-04T02:07:05;101034.00;;;10.80;100.00
50434;BME280;36361;38.954;-9.002;2023-03-04T02:08:06;101031.25;;;10.67;100.00
50434;BME280;36361;38.954;-9.002;2023-03-04T02:09:08;101029.97;;;10.56;100.00
50434;BME280;36361;38.954;-9.002;2023-03-04T02:10:10;101037.31;;;10.69;100.00
50434;BME280;36361;38.954;-9.002;2023-03-04T02:11:12;101033.13;;;10.73;100.00
50434;BME280;36361;38.954;-9.002;2023-03-04T02:12:12;101034.59;;;10.69;100.00
50434;BME280;36361;38.954;-9.002;2023-03-04T02:13:14;101032.91;;;10.68;100.00
50434;BME280;36361;38.954;-9.002;2023-03-04T02:14:16;101040.50;;;10.79;100.00
50434;BME280;36361;38.954;-9.002;2023-03-04T02:15:17;101035.03;;;10.72;100.00
50434;BME280;36361;38.954;-9.002;2023-03-04T02:16:18;101031.47;;;10.72;100.00
50434;BME280;36361;38.954;-9.002;2023-03-04T02:17:26;101039.63;;;10.72;100.00
50434;BME280;36361;38.954;-9.002;2023-03-04T02:18:27;101039.63;;;10.72;100.00
50434;BME280;36361;38.954;-9.002;2023-03-04T02:20:38;101027.06;;;10.84;100.00
50434;BME280;36361;38.954;-9.002;2023-03-04T02:21:44;101028.13;;;10.83;100.00
50434;BME280;36361;38.954;-9.002;2023-03-04T02:24:22;101034.19;;;10.72;100.00
50434;BME280;36361;38.954;-9.002;2023-03-04T02:25:32;101028.72;;;10.78;100.00
50434;BME280;36361;38.954;-9.002;2023-03-04T02:26:34;101033.56;;;10.70;100.00
50434;BME280;36361;38.954;-9.002;2023-03-04T02:27:35;101033.56;;;10.70;100.00
50434;BME280;36361;38.954;-9.002;2023-03-04T02:28:36;101029.56;;;10.66;100.00
50434;BME280;36361;38.954;-9.002;2023-03-04T02:29:37;101024.97;;;10.73;100.00
50434;BME280;36361;38.954;-9.002;2023-03-04T02:30:37;101024.16;;;10.79;100.00
50434;BME280;36361;38.954;-9.002;2023-03-04T02:31:44;101019.13;;;10.82;100.00
50434;BME280;36361;38.954;-9.002;2023-03-04T02:32:46;101022.66;;;10.76;100.00
50434;BME280;36361;38.954;-9.002;2023-03-04T02:33:46;101018.06;;;10.77;100.00
50434;BME280;36361;38.954;-9.002;2023-03-04T02:34:48;101019.31;;;10.74;100.00
50434;BME280;36361;38.954;-9.002;2023-03-04T02:35:50;101014.72;;;10.75;100.00
50434;BME280;36361;38.954;-9.002;2023-03-04T02:36:52;101010.53;;;10.79;100.00
50434;BME280;36361;38.954;-9.002;2023-03-04T02:37:54;101009.47;;;11.00;100.00
50434;BME280;36361;38.954;-9.002;2023-03-04T02:39:00;101006.94;;;11.05;100.00
50434;BME280;36361;38.954;-9.002;2023-03-04T02:40:04;101004.03;;;11.06;100.00
50434;BME280;36361;38.954;-9.002;2023-03-04T02:41:08;101007.59;;;11.00;100.00
50434;BME280;36361;38.954;-9.002;2023-03-04T02:42:12;100993.56;;;11.03;100.00
50434;BME280;36361;38.954;-9.002;2023-03-04T02:43:13;101004.44;;;11.03;100.00
50434;BME280;36361;38.954;-9.002;2023-03-04T02:44:22;101001.09;;;11.01;100.00
50434;BME280;36361;38.954;-9.002;2023-03-04T02:45:45;100998.59;;;11.06;100.00
50434;BME280;36361;38.954;-9.002;2023-03-04T02:46:48;101000.66;;;11.04;100.00
50434;BME280;36361;38.954;-9.002;2023-03-04T02:47:49;101001.72;;;11.10;100.00
50434;BME280;36361;38.954;-9.002;2023-03-04T02:48:51;101003.63;;;11.09;100.00
50434;BME280;36361;38.954;-9.002;2023-03-04T02:49:52;101009.03;;;10.96;100.00
50434;BME280;36361;38.954;-9.002;2023-03-04T02:50:55;101007.38;;;10.82;100.00
50434;BME280;36361;38.954;-9.002;2023-03-04T02:53:02;101006.13;;;10.51;100.00
50434;BME280;36361;38.954;-9.002;2023-03-04T02:54:03;101007.78;;;10.66;100.00
50434;BME280;36361;38.954;-9.002;2023-03-04T02:55:05;101013.22;;;10.66;100.00
50434;BME280;36361;38.954;-9.002;2023-03-04T02:56:06;101008.22;;;10.63;100.00
50434;BME280;36361;38.954;-9.002;2023-03-04T02:57:11;101012.81;;;10.69;100.00
50434;BME280;36361;38.954;-9.002;2023-03-04T02:58:15;101008.63;;;10.73;100.00
50434;BME280;36361;38.954;-9.002;2023-03-04T02:59:16;101004.00;;;10.67;100.00
50434;BME280;36361;38.954;-9.002;2023-03-04T03:00:18;101009.88;;;10.64;100.00
50434;BME280;36361;38.954;-9.002;2023-03-04T03:01:18;101007.16;;;10.57;100.00
50434;BME280;36361;38.954;-9.002;2023-03-04T03:02:19;101003.19;;;10.53;100.00
50434;BME280;36361;38.954;-9.002;2023-03-04T03:03:20;101014.44;;;10.37;100.00
50434;BME280;36361;38.954;-9.002;2023-03-04T03:04:22;101014.88;;;10.34;100.00
50434;BME280;36361;38.954;-9.002;2023-03-04T03:05:29;101012.31;;;10.32;100.00
50434;BME280;36361;38.954;-9.002;2023-03-04T03:06:30;101003.13;;;10.40;100.00
50434;BME280;36361;38.954;-9.002;2023-03-04T03:07:31;101005.22;;;10.31;100.00
50434;BME280;36361;38.954;-9.002;2023-03-04T03:08:34;101005.63;;;10.28;100.00
50434;BME280;36361;38.954;-9.002;2023-03-04T03:09:35;100995.81;;;10.27;100.00
50434;BME280;36361;38.954;-9.002;2023-03-04T03:10:39;101003.47;;;10.17;100.00
50434;BME280;36361;38.954;-9.002;2023-03-04T03:11:41;101004.75;;;10.21;100.00
50434;BME280;36361;38.954;-9.002;2023-03-04T03:12:42;101005.22;;;10.24;100.00
50434;BME280;36361;38.954;-9.002;2023-03-04T03:13:47;100991.41;;;10.26;100.00
50434;BME280;36361;38.954;-9.002;2023-03-04T03:14:48;100998.03;;;10.17;100.00
50434;BME280;36361;38.954;-9.002;2023-03-04T03:15:52;100994.91;;;10.20;100.00
50434;BME280;36361;38.954;-9.002;2023-03-04T03:16:52;100996.84;;;10.26;100.00
50434;BME280;36361;38.954;-9.002;2023-03-04T03:17:53;100994.56;;;10.49;100.00
50434;BME280;36361;38.954;-9.002;2023-03-04T03:18:54;100983.88;;;10.41;100.00
50434;BME280;36361;38.954;-9.002;2023-03-04T03:19:56;100988.09;;;10.50;100.00
50434;BME280;36361;38.954;-9.002;2023-03-04T03:20:57;100986.00;;;10.52;100.00
50434;BME280;36361;38.954;-9.002;2023-03-04T03:21:57;100985.19;;;10.72;100.00
50434;BME280;36361;38.954;-9.002;2023-03-04T03:22:58;100988.09;;;10.77;100.00
50434;BME280;36361;38.954;-9.002;2023-03-04T03:23:59;100985.19;;;10.72;100.00
50434;BME280;36361;38.954;-9.002;2023-03-04T03:24:59;100993.56;;;10.70;100.00
50434;BME280;36361;38.954;-9.002;2023-03-04T03:26:00;100988.13;;;10.64;100.00
50434;BME280;36361;38.954;-9.002;2023-03-04T03:27:01;100991.22;;;10.47;100.00
50434;BME280;36361;38.954;-9.002;2023-03-04T03:28:02;100989.78;;;10.51;100.00
50434;BME280;36361;38.954;-9.002;2023-03-04T03:29:03;100991.81;;;10.30;100.00
50434;BME280;36361;38.954;-9.002;2023-03-04T03:30:05;100999.78;;;10.31;100.00
50434;BME280;36361;38.954;-9.002;2023-03-04T03:31:09;100992.03;;;10.41;100.00
50434;BME280;36361;38.954;-9.002;2023-03-04T03:32:10;100991.22;;;10.34;100.00
50434;BME280;36361;38.954;-9.002;2023-03-04T03:33:11;100990.38;;;10.40;100.00
50434;BME280;36361;38.954;-9.002;2023-03-04T03:34:12;100993.53;;;10.44;100.00
50434;BME280;36361;38.954;-9.002;2023-03-04T03:35:12;100987.47;;;10.48;100.00
50434;BME280;36361;38.954;-9.002;2023-03-04T03:36:14;100990.16;;;10.35;100.00
50434;BME280;36361;38.954;-9.002;2023-03-04T03:37:15;100992.59;;;10.17;100.00
50434;BME280;36361;38.954;-9.002;2023-03-04T03:38:15;100997.78;;;9.98;100.00
50434;BME280;36361;38.954;-9.002;2023-03-04T03:39:16;100994.78;;;9.87;100.00
50434;BME280;36361;38.954;-9.002;2023-03-04T03:40:17;101001.28;;;9.92;100.00
50434;BME280;36361;38.954;-9.002;2023-03-04T03:41:18;100991.94;;;10.15;100.00
50434;BME280;36361;38.954;-9.002;2023-03-04T03:42:19;100983.69;;;10.36;100.00
50434;BME280;36361;38.954;-9.002;2023-03-04T03:43:19;100992.25;;;10.40;100.00
50434;BME280;36361;38.954;-9.002;2023-03-04T03:44:20;100991.03;;;10.42;100.00
50434;BME280;36361;38.954;-9.002;2023-03-04T03:45:21;100995.19;;;10.38;100.00
50434;BME280;36361;38.954;-9.002;2023-03-04T03:46:21;100985.13;;;10.32;100.00
50434;BME280;36361;38.954;-9.002;2023-03-04T03:47:22;100989.31;;;10.28;100.00
50434;BME280;36361;38.954;-9.002;2023-03-04T03:48:23;100987.66;;;10.34;100.00
50434;BME280;36361;38.954;-9.002;2023-03-04T03:49:24;100982.22;;;10.40;100.00
50434;BME280;36361;38.954;-9.002;2023-03-04T03:50:24;100989.13;;;10.36;100.00
50434;BME280;36361;38.954;-9.002;2023-03-04T03:51:25;100983.06;;;10.34;100.00
50434;BME280;36361;38.954;-9.002;2023-03-04T03:52:26;100991.41;;;10.26;100.00
50434;BME280;36361;38.954;-9.002;2023-03-04T03:53:27;100978.03;;;10.24;100.00
50434;BME280;36361;38.954;-9.002;2023-03-04T03:54:27;100984.22;;;10.12;100.00
50434;BME280;36361;38.954;-9.002;2023-03-04T03:55:28;100981.06;;;10.15;100.00
50434;BME280;36361;38.954;-9.002;2023-03-04T03:56:32;100971.94;;;9.75;100.00
50434;BME280;36361;38.954;-9.002;2023-03-04T03:57:33;100980.72;;;9.70;100.00
50434;BME280;36361;38.954;-9.002;2023-03-04T03:58:33;100981.63;;;9.90;100.00
50434;BME280;36361;38.954;-9.002;2023-03-04T03:59:34;100977.47;;;9.88;100.00
50434;BME280;36361;38.954;-9.002;2023-03-04T04:00:35;100980.34;;;9.86;100.00
50434;BME280;36361;38.954;-9.002;2023-03-04T04:01:36;100989.34;;;9.80;100.00
50434;BME280;36361;38.954;-9.002;2023-03-04T04:02:37;100984.47;;;9.69;100.00
50434;BME280;36361;38.954;-9.002;2023-03-04T04:03:37;100983.50;;;9.83;100.00
50434;BME280;36361;38.954;-9.002;2023-03-04T04:04:38;100986.63;;;9.87;100.00
50434;BME280;36361;38.954;-9.002;2023-03-04T04:05:39;100978.69;;;9.79;100.00
50434;BME280;36361;38.954;-9.002;2023-03-04T04:06:39;100974.47;;;9.76;100.00
50434;BME280;36361;38.954;-9.002;2023-03-04T04:07:40;100975.28;;;9.70;100.00
50434;BME280;36361;38.954;-9.002;2023-03-04T04:08:41;100966.94;;;9.78;100.00
50434;BME280;36361;38.954;-9.002;2023-03-04T04:09:42;100967.69;;;9.59;100.00
50434;BME280;36361;38.954;-9.002;2023-03-04T04:10:43;100960.28;;;9.81;100.00
50434;BME280;36361;38.954;-9.002;2023-03-04T04:11:44;100962.72;;;9.69;100.00
50434;BME280;36361;38.954;-9.002;2023-03-04T04:12:45;100965.75;;;9.46;100.00
50434;BME280;36361;38.954;-9.002;2023-03-04T04:13:45;100965.50;;;9.41;100.00
50434;BME280;36361;38.954;-9.002;2023-03-04T04:14:46;100970.41;;;9.18;100.00
50434;BME280;36361;38.954;-9.002;2023-03-04T04:15:47;100965.03;;;9.24;100.00
50434;BME280;36361;38.954;-9.002;2023-03-04T04:16:47;100963.44;;;9.43;100.00
50434;BME280;36361;38.954;-9.002;2023-03-04T04:17:48;100971.16;;;9.39;100.00
50434;BME280;36361;38.954;-9.002;2023-03-04T04:18:49;100972.66;;;9.42;100.00
50434;BME280;36361;38.954;-9.002;2023-03-04T04:19:49;100973.28;;;9.51;100.00
50434;BME280;36361;38.954;-9.002;2023-03-04T04:20:51;100970.03;;;9.27;100.00
50434;BME280;36361;38.954;-9.002;2023-03-04T04:21:52;100968.00;;;9.36;100.00
50434;BME280;36361;38.954;-9.002;2023-03-04T04:22:53;100972.66;;;9.42;100.00
50434;BME280;36361;38.954;-9.002;2023-03-04T04:24:00;100965.66;;;9.26;100.00
50434;BME280;36361;38.954;-9.002;2023-03-04T04:25:08;100972.66;;;9.14;100.00
50434;BME280;36361;38.954;-9.002;2023-03-04T04:26:10;100963.25;;;9.10;100.00
50434;BME280;36361;38.954;-9.002;2023-03-04T04:27:11;100967.88;;;9.16;100.00
50434;BME280;36361;38.954;-9.002;2023-03-04T04:28:11;100972.78;;;8.99;100.00
50434;BME280;36361;38.954;-9.002;2023-03-04T04:29:13;100975.28;;;9.01;100.00
50434;BME280;36361;38.954;-9.002;2023-03-04T04:30:14;100971.13;;;9.05;100.00
50434;BME280;36361;38.954;-9.002;2023-03-04T04:31:15;100970.19;;;9.19;100.00
50434;BME280;36361;38.954;-9.002;2023-03-04T04:32:16;100965.50;;;9.34;100.00
50434;BME280;36361;38.954;-9.002;2023-03-04T04:33:16;100970.44;;;9.24;100.00
50434;BME280;36361;38.954;-9.002;2023-03-04T04:34:17;100968.53;;;9.18;100.00
50434;BME280;36361;38.954;-9.002;2023-03-04T04:35:18;100962.97;;;9.05;100.00
50434;BME280;36361;38.954;-9.002;2023-03-04T04:36:19;100965.28;;;9.01;100.00
50434;BME280;36361;38.954;-9.002;2023-03-04T04:37:19;100959.16;;;8.93;100.00
50434;BME280;36361;38.954;-9.002;2023-03-04T04:38:20;100962.59;;;9.08;100.00
50434;BME280;36361;38.954;-9.002;2023-03-04T04:39:21;100962.81;;;9.06;100.00
50434;BME280;36361;38.954;-9.002;2023-03-04T04:40:22;100968.59;;;9.31;100.00
50434;BME280;36361;38.954;-9.002;2023-03-04T04:41:29;100966.03;;;9.23;100.00
50434;BME280;36361;38.954;-9.002;2023-03-04T04:42:31;100963.94;;;8.91;100.00
50434;BME280;36361;38.954;-9.002;2023-03-04T04:43:31;100967.19;;;9.07;100.00
50434;BME280;36361;38.954;-9.002;2023-03-04T04:44:32;100969.16;;;9.20;100.00
50434;BME280;36361;38.954;-9.002;2023-03-04T04:45:33;100963.19;;;9.03;100.00
50434;BME280;36361;38.954;-9.002;2023-03-04T04:46:35;100955.53;;;8.86;100.00
50434;BME280;36361;38.954;-9.002;2023-03-04T04:47:36;100968.94;;;8.87;100.00
50434;BME280;36361;38.954;-9.002;2023-03-04T04:48:36;100959.94;;;8.87;100.00
50434;BME280;36361;38.954;-9.002;2023-03-04T04:49:37;100968.88;;;9.08;100.00
50434;BME280;36361;38.954;-9.002;2023-03-04T04:50:38;100968.75;;;9.23;100.00
50434;BME280;36361;38.954;-9.002;2023-03-04T04:51:38;100961.41;;;9.17;100.00
50434;BME280;36361;38.954;-9.002;2023-03-04T04:52:39;100969.94;;;9.14;100.00
50434;BME280;36361;38.954;-9.002;2023-03-04T04:53:40;100965.28;;;9.01;100.00
50434;BME280;36361;38.954;-9.002;2023-03-04T04:54:41;100967.28;;;8.93;100.00
50434;BME280;36361;38.954;-9.002;2023-03-04T04:55:41;100973.50;;;8.87;100.00
50434;BME280;36361;38.954;-9.002;2023-03-04T04:56:42;100968.34;;;8.92;100.00
50434;BME280;36361;38.954;-9.002;2023-03-04T04:57:43;100972.22;;;8.82;100.00
50434;BME280;36361;38.954;-9.002;2023-03-04T04:58:44;100968.75;;;8.89;100.00
50434;BME280;36361;38.954;-9.002;2023-03-04T04:59:45;100973.31;;;8.88;100.00
50434;BME280;36361;38.954;-9.002;2023-03-04T05:00:46;100975.72;;;9.04;100.00
50434;BME280;36361;38.954;-9.002;2023-03-04T05:01:47;100974.94;;;9.10;100.00
50434;BME280;36361;38.954;-9.002;2023-03-04T05:02:48;100972.03;;;9.12;100.00
50434;BME280;36361;38.954;-9.002;2023-03-04T05:03:49;100972.97;;;9.26;100.00
50434;BME280;36361;38.954;-9.002;2023-03-04T05:04:52;100970.88;;;9.28;100.00
50434;BME280;36361;38.954;-9.002;2023-03-04T05:05:56;100974.84;;;9.32;100.00
50434;BME280;36361;38.954;-9.002;2023-03-04T05:06:57;100965.88;;;9.31;100.00
50434;BME280;36361;38.954;-9.002;2023-03-04T05:07:57;100962.13;;;9.32;100.00
50434;BME280;36361;38.954;-9.002;2023-03-04T05:08:58;100970.44;;;9.24;100.00
50434;BME280;36361;38.954;-9.002;2023-03-04T05:09:59;100975.34;;;9.07;100.00
50434;BME280;36361;38.954;-9.002;2023-03-04T05:11:00;100973.16;;;9.24;100.00
50434;BME280;36361;38.954;-9.002;2023-03-04T05:12:02;100969.22;;;9.27;100.00
50434;BME280;36361;38.954;-9.002;2023-03-04T05:13:02;100980.50;;;9.30;100.00
50434;BME280;36361;38.954;-9.002;2023-03-04T05:14:03;100972.56;;;9.29;100.00
50434;BME280;36361;38.954;-9.002;2023-03-04T05:15:04;100975.28;;;9.29;100.00
50434;BME280;36361;38.954;-9.002;2023-03-04T05:16:05;100978.13;;;9.21;100.00
50434;BME280;36361;38.954;-9.002;2023-03-04T05:17:06;100979.13;;;9.13;100.00
50434;BME280;36361;38.954;-9.002;2023-03-04T05:18:06;100974.41;;;8.94;100.00
50434;BME280;36361;38.954;-9.002;2023-03-04T05:19:07;100984.91;;;9.03;100.00